sensor_id;sensor_type;location;lat;lon;timestamp;P1;durP1;ratioP1;P2;durP2;ratioP2
10847;SDS011;5477;48.806;9.154;2022-09-12T00:01:01;8.53;;;7.70;;
10847;SDS011;5477;48.806;9.154;2022-09-12T00:03:30;8.60;;;7.70;;
10847;SDS011;5477;48.806;9.154;2022-09-12T00:05:59;9.30;;;7.50;;
10847;SDS011;5477;48.806;9.154;2022-09-12T00:08:27;9.20;;;7.57;;
10847;SDS011;5477;48.806;9.154;2022-09-12T00:10:56;9.10;;;7.93;;
10847;SDS011;5477;48.806;9.154;2022-09-12T00:13:24;10.30;;;8.10;;
10847;SDS011;5477;48.806;9.154;2022-09-12T00:15:52;10.73;;;8.00;;
10847;SDS011;5477;48.806;9.154;2022-09-12T00:18:19;9.57;;;7.90;;
10847;SDS011;5477;48.806;9.154;2022-09-12T00:20:47;9.00;;;7.80;;
10847;SDS011;5477;48.806;9.154;2022-09-12T00:23:15;12.63;;;8.47;;
10847;SDS011;5477;48.806;9.154;2022-09-12T00:25:43;12.50;;;8.77;;
10847;SDS011;5477;48.806;9.154;2022-09-12T00:28:14;12.67;;;8.77;;
10847;SDS011;5477;48.806;9.154;2022-09-12T00:30:45;10.23;;;7.90;;
10847;SDS011;5477;48.806;9.154;2022-09-12T00:33:14;9.97;;;7.97;;
10847;SDS011;5477;48.806;9.154;2022-09-12T00:35:44;9.00;;;8.10;;
10847;SDS011;5477;48.806;9.154;2022-09-12T00:38:13;9.93;;;8.57;;
10847;SDS011;5477;48.806;9.154;2022-09-12T00:40:43;11.10;;;8.07;;
10847;SDS011;5477;48.806;9.154;2022-09-12T00:43:11;9.70;;;8.70;;
10847;SDS011;5477;48.806;9.154;2022-09-12T00:45:41;11.73;;;8.93;;
10847;SDS011;5477;48.806;9.154;2022-09-12T00:48:20;9.80;;;8.80;;
10847;SDS011;5477;48.806;9.154;2022-09-12T00:50:57;10.87;;;8.63;;
10847;SDS011;5477;48.806;9.154;2022-09-12T00:53:25;11.43;;;8.17;;
10847;SDS011;5477;48.806;9.154;2022-09-12T00:55:54;12.27;;;8.50;;
10847;SDS011;5477;48.806;9.154;2022-09-12T00:58:25;9.67;;;8.13;;
10847;SDS011;5477;48.806;9.154;2022-09-12T01:00:56;8.73;;;7.43;;
10847;SDS011;5477;48.806;9.154;2022-09-12T01:03:25;11.27;;;7.57;;
10847;SDS011;5477;48.806;9.154;2022-09-12T01:06:04;9.50;;;7.63;;
10847;SDS011;5477;48.806;9.154;2022-09-12T01:08:35;9.63;;;8.00;;
10847;SDS011;5477;48.806;9.154;2022-09-12T01:11:06;8.80;;;7.90;;
10847;SDS011;5477;48.806;9.154;2022-09-12T01:13:37;10.27;;;8.17;;
10847;SDS011;5477;48.806;9.154;2022-09-12T01:16:06;11.37;;;8.43;;
10847;SDS011;5477;48.806;9.154;2022-09-12T01:18:39;10.77;;;9.07;;
10847;SDS011;5477;48.806;9.154;2022-09-12T01:21:19;13.00;;;9.23;;
10847;SDS011;5477;48.806;9.154;2022-09-12T01:24:02;10.37;;;9.27;;
10847;SDS011;5477;48.806;9.154;2022-09-12T01:26:51;12.10;;;9.93;;
10847;SDS011;5477;48.806;9.154;2022-09-12T01:29:42;11.77;;;9.13;;
10847;SDS011;5477;48.806;9.154;2022-09-12T01:32:36;12.93;;;8.67;;
10847;SDS011;5477;48.806;9.154;2022-09-12T01:35:15;10.50;;;9.33;;
10847;SDS011;5477;48.806;9.154;2022-09-12T01:37:52;9.73;;;8.73;;
10847;SDS011;5477;48.806;9.154;2022-09-12T01:40:30;11.27;;;9.27;;
10847;SDS011;5477;48.806;9.154;2022-09-12T01:43:07;10.47;;;8.50;;
10847;SDS011;5477;48.806;9.154;2022-09-12T01:45:44;11.23;;;8.47;;
10847;SDS011;5477;48.806;9.154;2022-09-12T01:48:21;10.03;;;8.50;;
10847;SDS011;5477;48.806;9.154;2022-09-12T01:50:55;11.10;;;9.30;;
10847;SDS011;5477;48.806;9.154;2022-09-12T01:53:32;10.57;;;9.10;;
10847;SDS011;5477;48.806;9.154;2022-09-12T01:56:05;10.73;;;9.10;;
10847;SDS011;5477;48.806;9.154;2022-09-12T01:58:37;10.57;;;8.77;;
10847;SDS011;5477;48.806;9.154;2022-09-12T02:01:10;12.07;;;8.67;;
10847;SDS011;5477;48.806;9.154;2022-09-12T02:03:43;12.83;;;9.37;;
10847;SDS011;5477;48.806;9.154;2022-09-12T02:06:16;10.00;;;8.60;;
10847;SDS011;5477;48.806;9.154;2022-09-12T02:08:48;11.70;;;9.47;;
10847;SDS011;5477;48.806;9.154;2022-09-12T02:11:19;10.63;;;9.17;;
10847;SDS011;5477;48.806;9.154;2022-09-12T02:13:49;10.47;;;9.40;;
10847;SDS011;5477;48.806;9.154;2022-09-12T02:16:22;11.10;;;9.20;;
10847;SDS011;5477;48.806;9.154;2022-09-12T02:18:58;17.17;;;8.93;;
10847;SDS011;5477;48.806;9.154;2022-09-12T02:21:31;14.20;;;9.77;;
10847;SDS011;5477;48.806;9.154;2022-09-12T02:24:02;13.37;;;9.80;;
10847;SDS011;5477;48.806;9.154;2022-09-12T02:26:37;14.10;;;9.50;;
10847;SDS011;5477;48.806;9.154;2022-09-12T02:29:10;13.67;;;9.77;;
10847;SDS011;5477;48.806;9.154;2022-09-12T02:31:39;11.60;;;9.50;;
10847;SDS011;5477;48.806;9.154;2022-09-12T02:34:16;12.23;;;9.43;;
10847;SDS011;5477;48.806;9.154;2022-09-12T02:36:54;12.57;;;9.57;;
10847;SDS011;5477;48.806;9.154;2022-09-12T02:39:29;12.47;;;9.53;;
10847;SDS011;5477;48.806;9.154;2022-09-12T02:41:57;14.63;;;10.57;;
10847;SDS011;5477;48.806;9.154;2022-09-12T02:44:28;14.23;;;10.30;;
10847;SDS011;5477;48.806;9.154;2022-09-12T02:46:58;13.20;;;9.83;;
10847;SDS011;5477;48.806;9.154;2022-09-12T02:49:31;12.90;;;10.30;;
10847;SDS011;5477;48.806;9.154;2022-09-12T02:51:59;12.03;;;9.93;;
10847;SDS011;5477;48.806;9.154;2022-09-12T02:54:28;13.17;;;9.90;;
10847;SDS011;5477;48.806;9.154;2022-09-12T02:56:57;11.00;;;9.40;;
10847;SDS011;5477;48.806;9.154;2022-09-12T02:59:25;16.50;;;9.10;;
10847;SDS011;5477;48.806;9.154;2022-09-12T03:07:51;15.23;;;10.27;;
10847;SDS011;5477;48.806;9.154;2022-09-12T03:10:31;10.93;;;9.63;;
10847;SDS011;5477;48.806;9.154;2022-09-12T03:13:08;11.73;;;9.87;;
10847;SDS011;5477;48.806;9.154;2022-09-12T03:15:48;12.93;;;10.03;;
10847;SDS011;5477;48.806;9.154;2022-09-12T03:18:28;14.37;;;11.27;;
10847;SDS011;5477;48.806;9.154;2022-09-12T03:21:08;13.70;;;11.30;;
10847;SDS011;5477;48.806;9.154;2022-09-12T03:23:42;13.10;;;10.67;;
10847;SDS011;5477;48.806;9.154;2022-09-12T03:26:17;13.67;;;10.87;;
10847;SDS011;5477;48.806;9.154;2022-09-12T03:28:52;14.57;;;10.57;;
10847;SDS011;5477;48.806;9.154;2022-09-12T03:31:22;15.03;;;10.93;;
10847;SDS011;5477;48.806;9.154;2022-09-12T03:33:50;13.43;;;10.43;;
10847;SDS011;5477;48.806;9.154;2022-09-12T03:36:20;15.03;;;10.47;;
10847;SDS011;5477;48.806;9.154;2022-09-12T03:38:50;13.07;;;10.37;;
10847;SDS011;5477;48.806;9.154;2022-09-12T03:41:19;12.70;;;10.13;;
10847;SDS011;5477;48.806;9.154;2022-09-12T03:43:47;13.50;;;10.83;;
10847;SDS011;5477;48.806;9.154;2022-09-12T03:46:15;15.00;;;11.03;;
10847;SDS011;5477;48.806;9.154;2022-09-12T03:48:43;14.97;;;10.53;;
10847;SDS011;5477;48.806;9.154;2022-09-12T03:51:11;11.83;;;10.00;;
10847;SDS011;5477;48.806;9.154;2022-09-12T03:53:40;12.93;;;10.40;;
10847;SDS011;5477;48.806;9.154;2022-09-12T03:56:09;13.07;;;9.70;;
10847;SDS011;5477;48.806;9.154;2022-09-12T03:58:37;12.03;;;9.57;;
10847;SDS011;5477;48.806;9.154;2022-09-12T04:01:07;13.80;;;9.57;;
10847;SDS011;5477;48.806;9.154;2022-09-12T04:03:38;14.57;;;9.40;;
10847;SDS011;5477;48.806;9.154;2022-09-12T04:06:06;11.83;;;9.20;;
10847;SDS011;5477;48.806;9.154;2022-09-12T04:08:35;12.80;;;9.30;;
10847;SDS011;5477;48.806;9.154;2022-09-12T04:11:05;13.37;;;9.60;;
10847;SDS011;5477;48.806;9.154;2022-09-12T04:13:34;12.67;;;9.67;;
10847;SDS011;5477;48.806;9.154;2022-09-12T04:16:03;16.40;;;9.70;;
10847;SDS011;5477;48.806;9.154;2022-09-12T04:18:32;13.83;;;9.80;;
10847;SDS011;5477;48.806;9.154;2022-09-12T04:21:02;11.40;;;9.40;;
10847;SDS011;5477;48.806;9.154;2022-09-12T04:23:31;13.00;;;9.23;;
10847;SDS011;5477;48.806;9.154;2022-09-12T04:25:59;12.97;;;9.17;;
10847;SDS011;5477;48.806;9.154;2022-09-12T04:28:30;14.03;;;9.33;;
10847;SDS011;5477;48.806;9.154;2022-09-12T04:31:00;12.20;;;9.00;;
10847;SDS011;5477;48.806;9.154;2022-09-12T04:33:30;14.30;;;9.23;;
10847;SDS011;5477;48.806;9.154;2022-09-12T04:36:01;12.30;;;9.67;;
10847;SDS011;5477;48.806;9.154;2022-09-12T04:38:30;11.23;;;9.07;;
10847;SDS011;5477;48.806;9.154;2022-09-12T04:40:59;12.30;;;9.43;;
10847;SDS011;5477;48.806;9.154;2022-09-12T04:43:27;11.13;;;8.87;;
10847;SDS011;5477;48.806;9.154;2022-09-12T04:45:56;10.90;;;9.37;;
10847;SDS011;5477;48.806;9.154;2022-09-12T04:48:31;11.20;;;9.57;;
10847;SDS011;5477;48.806;9.154;2022-09-12T04:51:07;13.50;;;9.70;;
10847;SDS011;5477;48.806;9.154;2022-09-12T04:53:36;11.63;;;10.03;;
10847;SDS011;5477;48.806;9.154;2022-09-12T04:56:05;12.47;;;8.90;;
10847;SDS011;5477;48.806;9.154;2022-09-12T04:58:35;12.13;;;8.83;;
10847;SDS011;5477;48.806;9.154;2022-09-12T05:01:06;12.13;;;9.57;;
10847;SDS011;5477;48.806;9.154;2022-09-12T05:03:35;11.53;;;9.40;;
10847;SDS011;5477;48.806;9.154;2022-09-12T05:06:05;13.97;;;9.03;;
10847;SDS011;5477;48.806;9.154;2022-09-12T05:08:34;11.53;;;8.67;;
10847;SDS011;5477;48.806;9.154;2022-09-12T05:11:04;11.50;;;8.87;;
10847;SDS011;5477;48.806;9.154;2022-09-12T05:13:33;11.60;;;9.50;;
10847;SDS011;5477;48.806;9.154;2022-09-12T05:16:02;9.43;;;8.00;;
10847;SDS011;5477;48.806;9.154;2022-09-12T05:18:34;11.30;;;8.30;;
10847;SDS011;5477;48.806;9.154;2022-09-12T05:21:03;13.57;;;8.70;;
10847;SDS011;5477;48.806;9.154;2022-09-12T05:23:33;12.20;;;8.73;;
10847;SDS011;5477;48.806;9.154;2022-09-12T05:26:02;11.37;;;8.83;;
10847;SDS011;5477;48.806;9.154;2022-09-12T05:28:32;12.40;;;8.67;;
10847;SDS011;5477;48.806;9.154;2022-09-12T05:31:02;10.67;;;8.53;;
10847;SDS011;5477;48.806;9.154;2022-09-12T05:33:32;11.93;;;8.70;;
10847;SDS011;5477;48.806;9.154;2022-09-12T05:36:03;12.43;;;8.93;;
10847;SDS011;5477;48.806;9.154;2022-09-12T05:38:33;10.27;;;7.70;;
10847;SDS011;5477;48.806;9.154;2022-09-12T05:41:02;9.33;;;7.40;;
10847;SDS011;5477;48.806;9.154;2022-09-12T05:43:31;8.87;;;7.97;;
10847;SDS011;5477;48.806;9.154;2022-09-12T05:45:59;11.40;;;7.70;;
10847;SDS011;5477;48.806;9.154;2022-09-12T05:48:28;8.93;;;7.37;;
10847;SDS011;5477;48.806;9.154;2022-09-12T05:51:01;9.27;;;7.47;;
10847;SDS011;5477;48.806;9.154;2022-09-12T05:53:32;8.70;;;7.47;;
10847;SDS011;5477;48.806;9.154;2022-09-12T05:56:01;9.97;;;7.47;;
10847;SDS011;5477;48.806;9.154;2022-09-12T05:58:33;8.80;;;7.33;;
10847;SDS011;5477;48.806;9.154;2022-09-12T06:01:05;10.17;;;7.57;;
10847;SDS011;5477;48.806;9.154;2022-09-12T06:03:38;10.77;;;7.47;;
10847;SDS011;5477;48.806;9.154;2022-09-12T06:06:11;11.97;;;7.83;;
10847;SDS011;5477;48.806;9.154;2022-09-12T06:08:41;10.23;;;7.90;;
10847;SDS011;5477;48.806;9.154;2022-09-12T06:11:11;9.70;;;7.90;;
10847;SDS011;5477;48.806;9.154;2022-09-12T06:13:41;13.30;;;8.40;;
10847;SDS011;5477;48.806;9.154;2022-09-12T06:16:10;9.60;;;8.47;;
10847;SDS011;5477;48.806;9.154;2022-09-12T06:18:40;11.63;;;8.20;;
10847;SDS011;5477;48.806;9.154;2022-09-12T06:21:09;9.43;;;8.47;;
10847;SDS011;5477;48.806;9.154;2022-09-12T06:23:39;10.17;;;8.17;;
10847;SDS011;5477;48.806;9.154;2022-09-12T06:26:07;9.97;;;8.63;;
10847;SDS011;5477;48.806;9.154;2022-09-12T06:28:37;9.93;;;8.60;;
10847;SDS011;5477;48.806;9.154;2022-09-12T06:31:07;13.07;;;9.27;;
10847;SDS011;5477;48.806;9.154;2022-09-12T06:33:38;12.57;;;9.37;;
10847;SDS011;5477;48.806;9.154;2022-09-12T06:36:09;12.73;;;9.40;;
10847;SDS011;5477;48.806;9.154;2022-09-12T06:38:41;12.93;;;10.23;;
10847;SDS011;5477;48.806;9.154;2022-09-12T06:41:09;17.67;;;13.37;;
10847;SDS011;5477;48.806;9.154;2022-09-12T06:43:39;13.70;;;10.40;;
10847;SDS011;5477;48.806;9.154;2022-09-12T06:46:08;14.47;;;9.97;;
10847;SDS011;5477;48.806;9.154;2022-09-12T06:48:36;15.13;;;11.07;;
10847;SDS011;5477;48.806;9.154;2022-09-12T06:51:08;17.13;;;11.63;;
10847;SDS011;5477;48.806;9.154;2022-09-12T06:53:41;16.97;;;12.60;;
10847;SDS011;5477;48.806;9.154;2022-09-12T06:56:10;14.30;;;11.43;;
10847;SDS011;5477;48.806;9.154;2022-09-12T06:58:39;14.00;;;11.47;;
10847;SDS011;5477;48.806;9.154;2022-09-12T07:01:09;14.87;;;11.17;;
10847;SDS011;5477;48.806;9.154;2022-09-12T07:03:39;14.63;;;10.70;;
10847;SDS011;5477;48.806;9.154;2022-09-12T07:06:08;14.53;;;11.60;;
10847;SDS011;5477;48.806;9.154;2022-09-12T07:08:37;14.57;;;11.47;;
10847;SDS011;5477;48.806;9.154;2022-09-12T07:11:08;15.37;;;11.23;;
10847;SDS011;5477;48.806;9.154;2022-09-12T07:13:37;17.03;;;11.27;;
10847;SDS011;5477;48.806;9.154;2022-09-12T07:16:06;16.23;;;10.63;;
10847;SDS011;5477;48.806;9.154;2022-09-12T07:18:35;14.30;;;11.07;;
10847;SDS011;5477;48.806;9.154;2022-09-12T07:21:05;13.90;;;10.70;;
10847;SDS011;5477;48.806;9.154;2022-09-12T07:23:34;14.17;;;10.80;;
10847;SDS011;5477;48.806;9.154;2022-09-12T07:26:03;11.70;;;10.23;;
10847;SDS011;5477;48.806;9.154;2022-09-12T07:28:32;12.77;;;9.90;;
10847;SDS011;5477;48.806;9.154;2022-09-12T07:31:04;10.30;;;9.13;;
10847;SDS011;5477;48.806;9.154;2022-09-12T07:33:33;9.97;;;8.97;;
10847;SDS011;5477;48.806;9.154;2022-09-12T07:36:02;9.57;;;8.67;;
10847;SDS011;5477;48.806;9.154;2022-09-12T07:38:31;10.33;;;7.83;;
10847;SDS011;5477;48.806;9.154;2022-09-12T07:40:59;10.37;;;8.23;;
10847;SDS011;5477;48.806;9.154;2022-09-12T07:43:29;9.07;;;8.17;;
10847;SDS011;5477;48.806;9.154;2022-09-12T07:45:56;9.50;;;8.17;;
10847;SDS011;5477;48.806;9.154;2022-09-12T07:48:25;9.13;;;8.13;;
10847;SDS011;5477;48.806;9.154;2022-09-12T07:50:56;10.50;;;7.77;;
10847;SDS011;5477;48.806;9.154;2022-09-12T07:53:26;9.67;;;7.93;;
10847;SDS011;5477;48.806;9.154;2022-09-12T07:55:58;10.47;;;7.87;;
10847;SDS011;5477;48.806;9.154;2022-09-12T07:58:29;12.10;;;8.43;;
10847;SDS011;5477;48.806;9.154;2022-09-12T08:01:01;11.97;;;8.90;;
10847;SDS011;5477;48.806;9.154;2022-09-12T08:03:30;13.10;;;9.30;;
10847;SDS011;5477;48.806;9.154;2022-09-12T08:06:02;14.53;;;9.87;;
10847;SDS011;5477;48.806;9.154;2022-09-12T08:08:31;18.30;;;10.80;;
10847;SDS011;5477;48.806;9.154;2022-09-12T08:10:59;17.47;;;10.67;;
10847;SDS011;5477;48.806;9.154;2022-09-12T08:13:30;14.67;;;10.47;;
10847;SDS011;5477;48.806;9.154;2022-09-12T08:15:59;15.87;;;11.13;;
10847;SDS011;5477;48.806;9.154;2022-09-12T08:18:29;11.70;;;9.77;;
10847;SDS011;5477;48.806;9.154;2022-09-12T08:20:58;11.37;;;9.10;;
10847;SDS011;5477;48.806;9.154;2022-09-12T08:23:27;10.97;;;8.93;;
10847;SDS011;5477;48.806;9.154;2022-09-12T08:25:56;10.10;;;7.90;;
10847;SDS011;5477;48.806;9.154;2022-09-12T08:28:31;10.37;;;8.03;;
10847;SDS011;5477;48.806;9.154;2022-09-12T08:31:00;14.50;;;6.83;;
10847;SDS011;5477;48.806;9.154;2022-09-12T08:33:29;7.53;;;6.80;;
10847;SDS011;5477;48.806;9.154;2022-09-12T08:36:03;8.80;;;6.43;;
10847;SDS011;5477;48.806;9.154;2022-09-12T08:38:32;10.07;;;6.90;;
10847;SDS011;5477;48.806;9.154;2022-09-12T08:41:02;8.63;;;7.57;;
10847;SDS011;5477;48.806;9.154;2022-09-12T08:43:47;8.13;;;7.20;;
10847;SDS011;5477;48.806;9.154;2022-09-12T08:46:26;10.07;;;6.40;;
10847;SDS011;5477;48.806;9.154;2022-09-12T08:48:59;8.50;;;6.60;;
10847;SDS011;5477;48.806;9.154;2022-09-12T08:51:29;7.50;;;6.00;;
10847;SDS011;5477;48.806;9.154;2022-09-12T08:53:59;10.73;;;6.93;;
10847;SDS011;5477;48.806;9.154;2022-09-12T08:56:31;7.77;;;6.10;;
10847;SDS011;5477;48.806;9.154;2022-09-12T08:59:06;5.87;;;5.37;;
10847;SDS011;5477;48.806;9.154;2022-09-12T09:01:36;7.87;;;5.80;;
10847;SDS011;5477;48.806;9.154;2022-09-12T09:04:18;6.10;;;5.50;;
10847;SDS011;5477;48.806;9.154;2022-09-12T09:07:06;5.83;;;5.13;;
10847;SDS011;5477;48.806;9.154;2022-09-12T09:09:52;7.40;;;4.90;;
10847;SDS011;5477;48.806;9.154;2022-09-12T09:12:28;5.87;;;4.80;;
10847;SDS011;5477;48.806;9.154;2022-09-12T09:15:13;8.47;;;5.10;;
10847;SDS011;5477;48.806;9.154;2022-09-12T09:17:50;5.70;;;4.73;;
10847;SDS011;5477;48.806;9.154;2022-09-12T09:20:23;5.50;;;4.93;;
10847;SDS011;5477;48.806;9.154;2022-09-12T09:22:57;7.20;;;4.83;;
10847;SDS011;5477;48.806;9.154;2022-09-12T09:25:36;5.57;;;4.40;;
10847;SDS011;5477;48.806;9.154;2022-09-12T09:28:11;5.53;;;4.13;;
10847;SDS011;5477;48.806;9.154;2022-09-12T09:30:44;4.50;;;3.97;;
10847;SDS011;5477;48.806;9.154;2022-09-12T09:33:15;4.43;;;3.60;;
10847;SDS011;5477;48.806;9.154;2022-09-12T09:35:47;3.67;;;3.37;;
10847;SDS011;5477;48.806;9.154;2022-09-12T09:38:24;5.47;;;3.70;;
10847;SDS011;5477;48.806;9.154;2022-09-12T09:41:04;5.07;;;3.80;;
10847;SDS011;5477;48.806;9.154;2022-09-12T09:43:49;4.53;;;2.90;;
10847;SDS011;5477;48.806;9.154;2022-09-12T09:46:18;3.40;;;3.10;;
10847;SDS011;5477;48.806;9.154;2022-09-12T09:48:47;6.53;;;3.33;;
10847;SDS011;5477;48.806;9.154;2022-09-12T09:51:16;3.80;;;2.90;;
10847;SDS011;5477;48.806;9.154;2022-09-12T09:53:50;4.20;;;2.80;;
10847;SDS011;5477;48.806;9.154;2022-09-12T09:56:24;3.30;;;2.60;;
10847;SDS011;5477;48.806;9.154;2022-09-12T09:58:54;3.50;;;2.37;;
10847;SDS011;5477;48.806;9.154;2022-09-12T10:01:23;3.40;;;2.57;;
10847;SDS011;5477;48.806;9.154;2022-09-12T10:03:53;2.60;;;2.40;;
10847;SDS011;5477;48.806;9.154;2022-09-12T10:06:28;3.03;;;2.63;;
10847;SDS011;5477;48.806;9.154;2022-09-12T10:09:04;2.93;;;2.50;;
10847;SDS011;5477;48.806;9.154;2022-09-12T10:11:34;3.30;;;2.53;;
10847;SDS011;5477;48.806;9.154;2022-09-12T10:14:24;3.77;;;2.40;;
10847;SDS011;5477;48.806;9.154;2022-09-12T10:16:56;2.80;;;2.17;;
10847;SDS011;5477;48.806;9.154;2022-09-12T10:19:32;3.57;;;2.17;;
10847;SDS011;5477;48.806;9.154;2022-09-12T10:22:01;3.37;;;2.33;;
10847;SDS011;5477;48.806;9.154;2022-09-12T10:24:32;2.37;;;2.10;;
10847;SDS011;5477;48.806;9.154;2022-09-12T10:27:06;2.43;;;2.20;;
10847;SDS011;5477;48.806;9.154;2022-09-12T10:29:38;3.40;;;1.97;;
10847;SDS011;5477;48.806;9.154;2022-09-12T10:32:14;2.97;;;2.17;;
10847;SDS011;5477;48.806;9.154;2022-09-12T10:34:57;2.53;;;2.33;;
10847;SDS011;5477;48.806;9.154;2022-09-12T10:37:29;2.83;;;2.10;;
10847;SDS011;5477;48.806;9.154;2022-09-12T10:39:59;2.60;;;1.87;;
10847;SDS011;5477;48.806;9.154;2022-09-12T10:42:43;2.97;;;2.13;;
10847;SDS011;5477;48.806;9.154;2022-09-12T10:45:20;3.07;;;2.20;;
10847;SDS011;5477;48.806;9.154;2022-09-12T10:47:56;2.20;;;2.00;;
10847;SDS011;5477;48.806;9.154;2022-09-12T10:50:34;3.77;;;2.20;;
10847;SDS011;5477;48.806;9.154;2022-09-12T10:53:12;2.73;;;2.00;;
10847;SDS011;5477;48.806;9.154;2022-09-12T10:55:51;1.90;;;1.70;;
10847;SDS011;5477;48.806;9.154;2022-09-12T10:58:35;1.80;;;1.70;;
10847;SDS011;5477;48.806;9.154;2022-09-12T11:01:24;2.00;;;1.80;;
10847;SDS011;5477;48.806;9.154;2022-09-12T11:04:10;2.30;;;1.87;;
10847;SDS011;5477;48.806;9.154;2022-09-12T11:06:49;2.63;;;1.90;;
10847;SDS011;5477;48.806;9.154;2022-09-12T11:09:27;3.93;;;1.90;;
10847;SDS011;5477;48.806;9.154;2022-09-12T11:12:05;3.93;;;1.90;;
10847;SDS011;5477;48.806;9.154;2022-09-12T11:14:42;2.20;;;2.00;;
10847;SDS011;5477;48.806;9.154;2022-09-12T11:17:22;2.10;;;1.70;;
10847;SDS011;5477;48.806;9.154;2022-09-12T11:20:05;2.38;;;1.73;;
10847;SDS011;5477;48.806;9.154;2022-09-12T11:22:56;1.92;;;1.60;;
10847;SDS011;5477;48.806;9.154;2022-09-12T11:25:53;4.93;;;1.80;;
10847;SDS011;5477;48.806;9.154;2022-09-12T11:28:28;2.33;;;1.45;;
10847;SDS011;5477;48.806;9.154;2022-09-12T11:31:15;2.47;;;1.67;;
10847;SDS011;5477;48.806;9.154;2022-09-12T11:34:07;1.77;;;1.67;;
10847;SDS011;5477;48.806;9.154;2022-09-12T11:36:39;1.90;;;1.35;;
10847;SDS011;5477;48.806;9.154;2022-09-12T11:39:14;4.07;;;1.63;;
10847;SDS011;5477;48.806;9.154;2022-09-12T11:41:44;1.70;;;1.60;;
10847;SDS011;5477;48.806;9.154;2022-09-12T11:44:17;3.03;;;1.77;;
10847;SDS011;5477;48.806;9.154;2022-09-12T11:46:49;1.80;;;1.42;;
10847;SDS011;5477;48.806;9.154;2022-09-12T11:49:19;1.40;;;1.27;;
10847;SDS011;5477;48.806;9.154;2022-09-12T11:51:54;2.45;;;1.50;;
10847;SDS011;5477;48.806;9.154;2022-09-12T11:54:27;1.85;;;1.33;;
10847;SDS011;5477;48.806;9.154;2022-09-12T11:57:02;1.40;;;1.10;;
10847;SDS011;5477;48.806;9.154;2022-09-12T11:59:38;1.38;;;1.05;;
10847;SDS011;5477;48.806;9.154;2022-09-12T12:02:11;1.08;;;0.98;;
10847;SDS011;5477;48.806;9.154;2022-09-12T12:04:48;1.20;;;1.10;;
10847;SDS011;5477;48.806;9.154;2022-09-12T12:07:29;1.10;;;1.00;;
10847;SDS011;5477;48.806;9.154;2022-09-12T12:10:20;2.47;;;1.00;;
10847;SDS011;5477;48.806;9.154;2022-09-12T12:12:56;1.00;;;1.00;;
10847;SDS011;5477;48.806;9.154;2022-09-12T12:15:27;1.00;;;0.90;;
10847;SDS011;5477;48.806;9.154;2022-09-12T12:18:00;1.08;;;0.98;;
10847;SDS011;5477;48.806;9.154;2022-09-12T12:20:31;0.98;;;0.88;;
10847;SDS011;5477;48.806;9.154;2022-09-12T12:23:01;1.40;;;1.00;;
10847;SDS011;5477;48.806;9.154;2022-09-12T12:25:40;1.00;;;0.90;;
10847;SDS011;5477;48.806;9.154;2022-09-12T12:31:25;1.42;;;0.90;;
10847;SDS011;5477;48.806;9.154;2022-09-12T12:34:01;1.27;;;0.90;;
10847;SDS011;5477;48.806;9.154;2022-09-12T12:36:47;1.63;;;0.95;;
10847;SDS011;5477;48.806;9.154;2022-09-12T12:45:57;2.97;;;0.90;;
10847;SDS011;5477;48.806;9.154;2022-09-12T12:48:32;1.20;;;0.80;;
10847;SDS011;5477;48.806;9.154;2022-09-12T12:51:36;1.10;;;1.00;;
10847;SDS011;5477;48.806;9.154;2022-09-12T12:54:28;1.30;;;1.02;;
10847;SDS011;5477;48.806;9.154;2022-09-12T12:57:28;1.20;;;1.10;;
10847;SDS011;5477;48.806;9.154;2022-09-12T13:00:05;0.80;;;0.80;;
10847;SDS011;5477;48.806;9.154;2022-09-12T13:02:54;0.93;;;0.82;;
10847;SDS011;5477;48.806;9.154;2022-09-12T13:05:26;1.10;;;1.00;;
10847;SDS011;5477;48.806;9.154;2022-09-12T13:07:56;1.35;;;0.93;;
10847;SDS011;5477;48.806;9.154;2022-09-12T13:10:29;1.52;;;0.90;;
10847;SDS011;5477;48.806;9.154;2022-09-12T13:12:59;3.70;;;0.90;;
10847;SDS011;5477;48.806;9.154;2022-09-12T13:15:47;1.48;;;0.98;;
10847;SDS011;5477;48.806;9.154;2022-09-12T13:18:18;1.00;;;0.80;;
10847;SDS011;5477;48.806;9.154;2022-09-12T13:20:51;2.30;;;0.95;;
10847;SDS011;5477;48.806;9.154;2022-09-12T13:23:24;1.10;;;1.00;;
10847;SDS011;5477;48.806;9.154;2022-09-12T13:25:53;1.00;;;0.85;;
10847;SDS011;5477;48.806;9.154;2022-09-12T13:28:25;1.05;;;0.90;;
10847;SDS011;5477;48.806;9.154;2022-09-12T13:30:55;3.10;;;1.10;;
10847;SDS011;5477;48.806;9.154;2022-09-12T13:33:29;0.95;;;0.80;;
10847;SDS011;5477;48.806;9.154;2022-09-12T13:36:21;1.98;;;0.90;;
10847;SDS011;5477;48.806;9.154;2022-09-12T13:39:04;0.95;;;0.80;;
10847;SDS011;5477;48.806;9.154;2022-09-12T13:44:40;0.90;;;0.80;;
10847;SDS011;5477;48.806;9.154;2022-09-12T13:47:12;1.90;;;0.80;;
10847;SDS011;5477;48.806;9.154;2022-09-12T13:49:44;1.75;;;0.93;;
10847;SDS011;5477;48.806;9.154;2022-09-12T13:52:14;1.13;;;0.90;;
10847;SDS011;5477;48.806;9.154;2022-09-12T13:54:45;1.60;;;0.90;;
10847;SDS011;5477;48.806;9.154;2022-09-12T13:57:26;1.00;;;0.90;;
10847;SDS011;5477;48.806;9.154;2022-09-12T13:59:57;1.63;;;0.88;;
10847;SDS011;5477;48.806;9.154;2022-09-12T14:02:33;1.10;;;0.93;;
10847;SDS011;5477;48.806;9.154;2022-09-12T14:05:13;0.80;;;0.80;;
10847;SDS011;5477;48.806;9.154;2022-09-12T14:07:55;1.40;;;1.30;;
10847;SDS011;5477;48.806;9.154;2022-09-12T14:10:27;1.17;;;0.85;;
10847;SDS011;5477;48.806;9.154;2022-09-12T14:12:58;1.02;;;0.80;;
10847;SDS011;5477;48.806;9.154;2022-09-12T14:15:32;0.80;;;0.80;;
10847;SDS011;5477;48.806;9.154;2022-09-12T14:18:04;0.75;;;0.75;;
10847;SDS011;5477;48.806;9.154;2022-09-12T14:20:34;1.52;;;1.42;;
10847;SDS011;5477;48.806;9.154;2022-09-12T14:23:05;0.80;;;0.80;;
10847;SDS011;5477;48.806;9.154;2022-09-12T14:25:42;0.82;;;0.80;;
10847;SDS011;5477;48.806;9.154;2022-09-12T14:28:13;1.35;;;0.70;;
10847;SDS011;5477;48.806;9.154;2022-09-12T14:31:00;0.85;;;0.85;;
10847;SDS011;5477;48.806;9.154;2022-09-12T14:33:31;0.90;;;0.80;;
10847;SDS011;5477;48.806;9.154;2022-09-12T14:36:15;0.80;;;0.80;;
10847;SDS011;5477;48.806;9.154;2022-09-12T14:38:47;0.60;;;0.60;;
10847;SDS011;5477;48.806;9.154;2022-09-12T14:41:20;1.58;;;0.75;;
10847;SDS011;5477;48.806;9.154;2022-09-12T14:43:51;1.02;;;0.80;;
10847;SDS011;5477;48.806;9.154;2022-09-12T14:46:24;2.05;;;1.00;;
10847;SDS011;5477;48.806;9.154;2022-09-12T14:48:57;1.85;;;0.80;;
10847;SDS011;5477;48.806;9.154;2022-09-12T14:51:29;0.70;;;0.70;;
10847;SDS011;5477;48.806;9.154;2022-09-12T14:54:00;0.95;;;0.88;;
10847;SDS011;5477;48.806;9.154;2022-09-12T14:56:38;1.73;;;0.70;;
10847;SDS011;5477;48.806;9.154;2022-09-12T14:59:28;1.02;;;0.75;;
10847;SDS011;5477;48.806;9.154;2022-09-12T15:04:48;0.63;;;0.63;;
10847;SDS011;5477;48.806;9.154;2022-09-12T15:07:20;1.42;;;1.20;;
10847;SDS011;5477;48.806;9.154;2022-09-12T15:09:56;1.02;;;0.90;;
10847;SDS011;5477;48.806;9.154;2022-09-12T15:12:25;1.75;;;0.75;;
10847;SDS011;5477;48.806;9.154;2022-09-12T15:14:53;1.77;;;0.73;;
10847;SDS011;5477;48.806;9.154;2022-09-12T15:17:27;0.60;;;0.60;;
10847;SDS011;5477;48.806;9.154;2022-09-12T15:19:55;1.35;;;0.90;;
10847;SDS011;5477;48.806;9.154;2022-09-12T15:22:23;1.35;;;1.00;;
10847;SDS011;5477;48.806;9.154;2022-09-12T15:24:52;1.70;;;0.80;;
10847;SDS011;5477;48.806;9.154;2022-09-12T15:27:22;1.25;;;1.00;;
10847;SDS011;5477;48.806;9.154;2022-09-12T15:29:51;1.02;;;0.90;;
10847;SDS011;5477;48.806;9.154;2022-09-12T15:32:21;1.42;;;0.80;;
10847;SDS011;5477;48.806;9.154;2022-09-12T15:34:51;0.93;;;0.82;;
10847;SDS011;5477;48.806;9.154;2022-09-12T15:37:20;1.98;;;1.10;;
10847;SDS011;5477;48.806;9.154;2022-09-12T15:39:49;0.90;;;0.80;;
10847;SDS011;5477;48.806;9.154;2022-09-12T15:42:18;0.88;;;0.80;;
10847;SDS011;5477;48.806;9.154;2022-09-12T15:44:54;1.13;;;1.00;;
10847;SDS011;5477;48.806;9.154;2022-09-12T15:47:27;4.13;;;0.90;;
10847;SDS011;5477;48.806;9.154;2022-09-12T15:49:56;0.80;;;0.80;;